Apache Acres, Indiana
Current Conditions -  °F | °C
As of 8:53 AM on Thursday 23 Oct 2014 (Local Time) from KHUF Reporting Station
Haze Haze  
Wind Chill:   Ceiling: Unl
Heat Index:   Visibility: 4mi
Dew Point:   Wind: 0mph
Humidity: 97%   Direction: NA
Pressure: 30.26"   Gusts: NA
Location:  39.543°N, 87.3153°W
Report Text: KHUF 231253Z 00000KT 4SM BR CLR 03/03 A3026 RMK AO2 SLP249 T00330028
Loading
Personal Weather Stations






























Interactive Weather Map
Tropical Storm Tracking
New forecast layout! Learn more

10-Day Weather Forecast

Advertisements
Track Severe Weather on mobile